Taconite, Minnesota
Current Conditions -  °F | °C
As of 7:35 PM on Monday 24 Nov 2014 (Local Time) from KGPZ Reporting Station
Overcast Overcast  
Wind Chill: -3°   Ceiling: 1700
Heat Index: 14°   Visibility: 10mi
Dew Point:   Wind: 17mph
Humidity: 79%   Direction: 330°NNW
Pressure: 29.77"   Gusts: 24mph
Location:  47.31°N, 93.38°W
Report Text: KGPZ 250135Z AUTO 33015G21KT 10SM OVC017 M10/M13 A2977 RMK AO1
Loading
Personal Weather Stations






























Interactive Weather Map New forecast layout! Learn more

10-Day Weather Forecast

Advertisements
Track Severe Weather on mobile